Time;durP1;ratioP1;P1;durP2;ratioP2;P2;SDS_P1;SDS_P2;PMS_P1;PMS_P2;Temp;Humidity;BMP_temperature;BMP_pressure;BME280_temperature;BME280_humidity;BME280_pressure;Samples;Min_cycle;Max_cycle;Signal;HPM_P1;HPM_P2
2023/05/15 00:08:58;;;;;;;4.10;3.20;;;;;;;24.76;23.13;102081.69;20971431;28;20044;-70
2023/05/15 00:18:59;;;;;;;5.28;3.10;;;;;;;24.67;23.09;102077.78;20993172;28;20503;-70
2023/05/15 00:29:01;;;;;;;6.13;3.22;;;;;;;24.73;24.08;102093.44;20962276;28;20037;-70
2023/05/15 00:39:02;;;;;;;10.57;3.28;;;;;;;24.72;23.59;102102.97;20971659;28;20098;-72
2023/05/15 00:49:12;;;;;;;6.13;3.40;;;;;;;24.67;23.83;102104.91;20950627;28;20110;-71
2023/05/15 00:59:15;;;;;;;7.07;3.17;;;;;;;24.64;24.37;102134.28;20944070;28;20098;-71
2023/05/15 01:09:18;;;;;;;7.68;3.70;;;;;;;24.68;23.80;102183.00;20947259;28;20064;-70
2023/05/15 01:19:19;;;;;;;5.15;3.15;;;;;;;24.60;23.65;102175.16;20915849;28;20049;-70
2023/05/15 01:29:40;;;;;;;7.60;3.78;;;;;;;24.54;24.22;102196.69;20941824;28;20514;-70
2023/05/15 01:39:55;;;;;;;9.18;3.33;;;;;;;24.47;23.67;102217.66;20957534;28;20044;-71
2023/05/15 01:49:58;;;;;;;4.95;3.53;;;;;;;24.31;23.06;102225.94;20955125;28;20071;-71
2023/05/15 02:00:00;;;;;;;6.32;3.13;;;;;;;24.16;23.57;102209.09;20952653;28;20479;-71
2023/05/15 02:10:03;;;;;;;3.42;3.13;;;;;;;24.03;23.73;102206.81;20954494;28;20172;-70
2023/05/15 02:20:06;;;;;;;4.82;3.38;;;;;;;24.40;23.82;102289.81;20975307;28;20041;-70
2023/05/15 02:30:19;;;;;;;4.13;3.00;;;;;;;24.27;24.30;102280.75;20963617;28;20045;-70
2023/05/15 02:40:23;;;;;;;6.13;2.72;;;;;;;24.16;24.13;102284.63;20964838;28;20044;-70
2023/05/15 02:50:30;;;;;;;5.65;3.03;;;;;;;23.99;24.45;102265.22;20922661;28;20036;-69
2023/05/15 03:00:32;;;;;;;5.10;2.47;;;;;;;24.16;24.82;102290.22;20957152;28;20037;-69
2023/05/15 03:10:33;;;;;;;7.90;3.15;;;;;;;24.12;25.70;102293.81;20943241;28;20496;-69
2023/05/15 03:20:34;;;;;;;7.47;2.92;;;;;;;24.10;25.69;102285.72;20991049;28;20067;-69
2023/05/15 03:30:36;;;;;;;2.97;2.60;;;;;;;24.02;25.40;102300.19;20995978;28;20118;-68
2023/05/15 03:40:38;;;;;;;6.07;2.83;;;;;;;24.00;25.88;102299.59;20966335;28;20048;-68
2023/05/15 03:50:45;;;;;;;4.50;2.67;;;;;;;23.84;25.75;102310.69;20982547;28;20079;-68
2023/05/15 04:00:47;;;;;;;4.13;2.70;;;;;;;23.87;26.44;102303.75;20962038;28;20407;-69
2023/05/15 04:10:49;;;;;;;4.28;2.33;;;;;;;23.90;26.57;102324.69;20980763;28;20391;-69
2023/05/15 04:20:51;;;;;;;4.32;2.67;;;;;;;23.84;26.32;102333.06;20966566;28;20103;-69
2023/05/15 04:30:52;;;;;;;5.95;2.70;;;;;;;23.51;26.71;102294.19;20951921;28;20045;-69
2023/05/15 04:40:54;;;;;;;3.63;2.65;;;;;;;23.68;26.58;102350.78;20937167;28;20039;-69
2023/05/15 04:50:55;;;;;;;3.05;2.45;;;;;;;23.64;27.09;102371.13;20925300;28;20049;-68
2023/05/15 05:00:57;;;;;;;3.05;2.47;;;;;;;23.74;27.30;102394.47;20938857;28;20061;-69
2023/05/15 05:10:58;;;;;;;2.85;2.47;;;;;;;23.68;27.40;102394.66;20950778;28;20435;-68
2023/05/15 05:21:00;;;;;;;3.28;2.47;;;;;;;23.69;27.64;102402.81;20980512;28;20036;-69
2023/05/15 05:31:02;;;;;;;4.57;2.30;;;;;;;23.56;27.61;102389.22;20953939;28;20052;-68
2023/05/15 05:41:03;;;;;;;4.22;2.10;;;;;;;23.55;27.49;102388.41;20983062;28;20053;-68
2023/05/15 05:51:05;;;;;;;3.45;2.15;;;;;;;23.63;28.07;102380.63;20934490;28;20045;-69
2023/05/15 06:01:06;;;;;;;2.92;2.30;;;;;;;23.64;28.07;102385.09;20989700;28;20049;-68
2023/05/15 06:11:07;;;;;;;2.63;1.98;;;;;;;23.48;27.84;102373.78;20962036;28;20070;-69
2023/05/15 06:21:11;;;;;;;2.83;2.20;;;;;;;23.38;27.83;102389.59;20968406;28;20380;-69
2023/05/15 06:31:13;;;;;;;6.72;2.58;;;;;;;23.50;28.05;102409.81;20943596;28;20041;-69
2023/05/15 06:41:17;;;;;;;2.17;1.90;;;;;;;23.39;27.86;102416.41;20938632;28;20045;-69
2023/05/15 06:51:18;;;;;;;2.30;2.00;;;;;;;23.38;28.42;102395.19;20928682;28;20372;-69
2023/05/15 07:01:19;;;;;;;4.18;1.92;;;;;;;23.35;28.15;102407.72;20969546;28;20041;-69
2023/05/15 07:11:21;;;;;;;2.47;2.10;;;;;;;23.13;28.24;102393.78;20958200;28;20047;-69
2023/05/15 07:21:22;;;;;;;2.80;1.80;;;;;;;23.17;29.01;102422.88;20949144;28;20106;-69
2023/05/15 07:31:24;;;;;;;2.28;1.77;;;;;;;23.14;28.55;102422.53;20963458;28;20102;-69
2023/05/15 07:41:25;;;;;;;3.13;2.33;;;;;;;23.03;28.80;102427.16;20944399;28;20107;-68
2023/05/15 07:51:30;;;;;;;1.60;1.45;;;;;;;23.04;28.66;102451.19;20943813;28;20110;-69
2023/05/15 08:01:31;;;;;;;1.70;1.60;;;;;;;23.00;28.74;102456.47;20919045;28;20048;-69
2023/05/15 08:11:32;;;;;;;1.88;1.60;;;;;;;23.02;28.62;102458.97;20962811;28;20064;-68
2023/05/15 08:21:34;;;;;;;2.20;1.80;;;;;;;23.10;28.70;102468.88;20961361;28;20041;-69
2023/05/15 08:31:35;;;;;;;2.15;1.80;;;;;;;22.99;28.87;102476.25;20928847;28;20045;-69
2023/05/15 08:41:46;;;;;;;1.85;1.75;;;;;;;23.01;29.04;102479.63;20954296;28;20060;-69
2023/05/15 08:51:48;;;;;;;1.83;1.70;;;;;;;23.03;29.20;102474.63;20959410;28;20037;-69
2023/05/15 09:01:49;;;;;;;1.77;1.67;;;;;;;23.10;28.90;102480.03;20948761;28;20045;-68
2023/05/15 09:11:51;;;;;;;2.00;1.60;;;;;;;23.10;28.71;102478.09;20978875;28;20040;-69
2023/05/15 09:21:53;;;;;;;2.08;1.88;;;;;;;23.15;28.84;102480.94;20971399;28;20048;-69
2023/05/15 09:31:54;;;;;;;3.08;2.05;;;;;;;22.83;29.00;102422.97;20988439;28;20056;-69
2023/05/15 09:42:14;;;;;;;4.68;2.00;;;;;;;23.09;29.18;102493.13;20994864;28;20406;-68
2023/05/15 09:52:19;;;;;;;4.28;2.03;;;;;;;22.92;28.92;102447.69;21009958;28;20040;-68
2023/05/15 10:02:30;;;;;;;4.65;1.90;;;;;;;22.94;28.84;102456.63;20976415;28;20040;-69
2023/05/15 10:12:35;;;;;;;2.40;1.85;;;;;;;23.20;28.75;102505.28;20991831;28;20089;-70
2023/05/15 10:22:41;;;;;;;2.13;1.92;;;;;;;23.20;28.50;102517.31;20992704;28;20070;-70
2023/05/15 10:32:45;;;;;;;2.08;1.80;;;;;;;23.17;29.05;102516.97;20989347;28;20109;-70
2023/05/15 10:42:46;;;;;;;2.92;1.67;;;;;;;23.01;28.86;102510.34;21001631;28;20105;-68
2023/05/15 10:52:50;;;;;;;2.65;1.60;;;;;;;22.91;28.96;102507.38;20982721;28;20040;-67
2023/05/15 11:02:55;;;;;;;3.72;2.30;;;;;;;22.95;28.80;102523.34;20921105;28;20111;-68
2023/05/15 11:13:00;;;;;;;7.80;1.95;;;;;;;22.99;30.36;102541.28;20959276;28;20111;-68
2023/05/15 11:23:04;;;;;;;3.25;2.13;;;;;;;22.96;29.28;102546.56;20964563;28;20066;-68
2023/05/15 11:33:12;;;;;;;4.65;1.70;;;;;;;22.95;29.16;102542.06;20972532;28;20380;-67
2023/05/15 11:43:23;;;;;;;4.25;1.98;;;;;;;22.83;28.27;102540.19;20940784;28;20059;-67
2023/05/15 11:53:25;;;;;;;4.57;2.30;;;;;;;22.97;27.42;102545.47;20933911;28;20492;-69
2023/05/15 12:03:34;;;;;;;3.03;2.00;;;;;;;23.03;27.78;102530.47;20943675;28;20461;-69
2023/05/15 12:13:36;;;;;;;5.00;2.05;;;;;;;22.87;27.59;102518.22;20926678;28;20048;-69
2023/05/15 12:23:37;;;;;;;3.20;1.90;;;;;;;22.98;27.24;102538.78;20941818;28;20052;-68
2023/05/15 12:33:38;;;;;;;5.95;2.13;;;;;;;22.96;27.02;102538.19;20924833;28;20041;-71
2023/05/15 12:43:40;;;;;;;5.95;2.42;;;;;;;22.94;27.33;102534.78;20929153;28;20087;-67
2023/05/15 12:53:42;;;;;;;4.55;1.83;;;;;;;23.09;27.58;102546.16;20948407;28;20046;-68
2023/05/15 13:03:43;;;;;;;6.88;1.80;;;;;;;23.05;26.97;102542.22;20949483;28;20415;-70
2023/05/15 13:13:47;;;;;;;3.50;2.13;;;;;;;22.90;25.84;102534.44;20935783;28;20041;-70
2023/05/15 13:23:50;;;;;;;3.70;1.77;;;;;;;22.99;26.40;102532.91;20909473;28;20106;-69
2023/05/15 13:33:54;;;;;;;3.25;2.03;;;;;;;22.78;26.63;102492.69;20942981;28;20098;-71
2023/05/15 13:43:57;;;;;;;3.38;1.70;;;;;;;22.93;26.11;102486.50;20956375;28;20043;-72
2023/05/15 13:53:59;;;;;;;2.55;1.92;;;;;;;23.15;26.21;102514.44;20909429;28;20075;-71
2023/05/15 14:04:04;;;;;;;4.15;1.90;;;;;;;23.15;25.97;102503.28;20918108;28;20053;-71
2023/05/15 14:14:06;;;;;;;2.38;1.70;;;;;;;23.23;26.27;102488.88;20961383;28;20045;-70
2023/05/15 14:24:08;;;;;;;3.22;1.98;;;;;;;23.44;25.87;102484.38;20949327;28;20049;-70
2023/05/15 14:34:12;;;;;;;3.75;1.95;;;;;;;23.56;24.39;102478.66;20964509;28;20033;-70
2023/05/15 14:44:16;;;;;;;7.28;2.30;;;;;;;23.54;25.67;102438.94;20993866;28;20569;-70
2023/05/15 14:54:17;;;;;;;3.47;1.98;;;;;;;23.64;25.46;102444.69;20934761;28;20037;-73
2023/05/15 15:04:20;;;;;;;5.40;1.95;;;;;;;23.43;23.99;102381.28;20994274;28;20484;-71
2023/05/15 15:14:21;;;;;;;3.13;2.20;;;;;;;23.67;24.80;102409.75;21013516;28;20047;-69
2023/05/15 15:24:29;;;;;;;4.70;2.30;;;;;;;23.73;24.77;102409.56;20958211;28;20037;-70
2023/05/15 15:34:30;;;;;;;4.55;1.85;;;;;;;23.81;24.10;102405.41;20936968;28;20045;-69
2023/05/15 15:44:34;;;;;;;4.95;2.38;;;;;;;23.78;24.05;102376.06;20946930;28;20398;-69
2023/05/15 15:54:36;;;;;;;3.35;2.30;;;;;;;23.91;24.29;102377.53;20983465;28;20439;-70
2023/05/15 16:04:38;;;;;;;3.90;2.20;;;;;;;23.90;24.43;102350.72;20921109;28;20103;-70
2023/05/15 16:14:39;;;;;;;5.30;1.90;;;;;;;23.81;24.34;102329.94;20951203;28;20047;-69
2023/05/15 16:24:41;;;;;;;3.15;2.15;;;;;;;23.93;24.48;102302.66;20954142;28;20036;-69
2023/05/15 16:34:42;;;;;;;4.07;2.20;;;;;;;23.95;23.89;102275.25;20951109;28;20068;-68
2023/05/15 16:44:43;;;;;;;3.35;2.05;;;;;;;24.15;24.13;102271.75;20913238;28;20130;-70
2023/05/15 16:54:45;;;;;;;13.45;3.22;;;;;;;24.15;24.60;102263.38;20976303;28;20047;-67
2023/05/15 17:04:46;;;;;;;5.20;2.55;;;;;;;24.23;24.30;102231.22;20984835;28;20469;-69
2023/05/15 17:14:47;;;;;;;3.40;2.45;;;;;;;24.04;24.72;102172.13;20963189;28;20445;-69
2023/05/15 17:24:52;;;;;;;6.75;2.80;;;;;;;24.21;24.88;102147.59;20961744;28;20044;-68
2023/05/15 17:34:53;;;;;;;9.32;3.30;;;;;;;24.39;24.76;102148.25;20971909;28;20052;-69
2023/05/15 17:44:55;;;;;;;12.13;3.20;;;;;;;24.43;25.01;102129.78;20995099;28;20098;-70
2023/05/15 17:54:56;;;;;;;5.93;2.88;;;;;;;24.49;25.27;102111.88;21005385;28;20523;-69
2023/05/15 18:04:58;;;;;;;8.35;2.60;;;;;;;24.55;25.32;102085.59;21004246;28;20114;-68
2023/05/15 18:14:59;;;;;;;5.88;2.67;;;;;;;24.55;25.34;102068.78;20963028;28;20070;-69
2023/05/15 18:25:00;;;;;;;3.72;2.75;;;;;;;24.60;25.41;102054.81;20993930;28;20546;-71
2023/05/15 18:35:02;;;;;;;5.20;2.75;;;;;;;24.67;25.76;102032.16;20997579;28;20044;-69
2023/05/15 18:45:05;;;;;;;5.00;2.58;;;;;;;24.67;25.52;102016.19;20976410;28;20044;-69
2023/05/15 18:55:08;;;;;;;6.75;3.28;;;;;;;24.70;25.44;101984.84;20916914;28;20075;-70
2023/05/15 19:05:10;;;;;;;4.88;2.35;;;;;;;24.71;25.81;101958.53;20923108;28;20109;-70
2023/05/15 19:15:14;;;;;;;4.00;2.47;;;;;;;24.70;24.81;101931.69;20989266;28;20558;-70
2023/05/15 19:25:15;;;;;;;3.92;2.90;;;;;;;24.82;24.49;101914.56;20965898;28;20052;-70
2023/05/15 19:35:17;;;;;;;4.28;2.80;;;;;;;24.79;24.48;101890.78;20995242;28;20113;-69
2023/05/15 19:45:18;;;;;;;2.50;2.25;;;;;;;24.87;24.20;101877.31;21016814;28;20106;-70
2023/05/15 19:55:19;;;;;;;6.03;2.92;;;;;;;24.87;24.12;101863.31;20982813;28;20033;-67
2023/05/15 20:05:21;;;;;;;3.70;2.88;;;;;;;24.78;24.39;101821.06;20950895;28;20037;-68
2023/05/15 20:15:30;;;;;;;4.82;2.80;;;;;;;24.93;23.85;101825.78;20939070;28;20095;-69
2023/05/15 20:25:31;;;;;;;4.25;2.97;;;;;;;25.03;23.37;101829.38;20931532;28;20063;-68
2023/05/15 20:35:33;;;;;;;5.35;3.10;;;;;;;24.87;23.04;101773.72;20944749;28;20025;-70
2023/05/15 20:45:34;;;;;;;5.97;2.72;;;;;;;25.04;23.48;101774.19;20936012;28;20082;-69
2023/05/15 20:55:36;;;;;;;4.80;3.40;;;;;;;25.09;22.95;101779.78;20944614;28;20041;-69
2023/05/15 21:05:37;;;;;;;4.50;3.17;;;;;;;25.10;23.17;101759.06;20946869;28;20029;-67
2023/05/15 21:15:39;;;;;;;5.30;2.90;;;;;;;25.15;23.51;101747.81;20925366;28;20044;-68
2023/05/15 21:25:41;;;;;;;5.25;3.05;;;;;;;25.16;23.17;101749.50;20923392;28;20102;-69
2023/05/15 21:35:44;;;;;;;7.72;3.58;;;;;;;25.16;23.26;101731.88;20943885;28;20365;-68
2023/05/15 21:45:46;;;;;;;3.83;2.83;;;;;;;25.15;23.12;101731.00;20970047;28;20049;-70
2023/05/15 21:55:50;;;;;;;6.28;3.35;;;;;;;25.13;22.41;101710.03;21000750;28;20037;-71
2023/05/15 22:05:52;;;;;;;5.68;3.40;;;;;;;25.15;22.69;101703.00;21003784;28;20040;-69
2023/05/15 22:15:53;;;;;;;3.45;2.63;;;;;;;25.09;22.35;101693.81;21005126;28;20029;-62
2023/05/15 22:25:55;;;;;;;6.18;2.88;;;;;;;25.14;22.87;101683.69;20940652;28;20077;-64
2023/05/15 22:36:05;;;;;;;4.30;3.20;;;;;;;25.14;22.84;101670.53;20963847;28;20045;-64
2023/05/15 22:46:07;;;;;;;5.85;3.13;;;;;;;25.09;23.66;101653.78;20972531;28;20041;-63
2023/05/15 22:56:08;;;;;;;10.32;3.35;;;;;;;24.73;25.26;101600.81;20929590;28;20546;-64
2023/05/15 23:06:16;;;;;;;4.47;3.60;;;;;;;24.93;26.39;101649.41;20971337;28;20048;-64
2023/05/15 23:16:17;;;;;;;8.83;3.33;;;;;;;24.93;26.70;101627.84;20999634;28;20501;-63
2023/05/15 23:26:20;;;;;;;6.80;3.60;;;;;;;25.05;27.45;101641.44;20994887;28;20102;-65
2023/05/15 23:36:22;;;;;;;6.55;3.20;;;;;;;25.05;27.38;101635.84;20991501;28;20037;-64
2023/05/15 23:46:26;;;;;;;7.90;3.10;;;;;;;25.09;27.30;101648.16;20998256;28;20040;-68
2023/05/15 23:56:28;;;;;;;5.38;3.25;;;;;;;25.13;27.93;101642.81;20895896;28;20403;-65
